createdAt,value
2018-09-19T00:01:49.900Z,99.90
2018-09-19T00:04:18.013Z,99.90
2018-09-19T00:06:46.045Z,99.90
2018-09-19T00:09:14.111Z,99.90
2018-09-19T00:11:42.154Z,99.90
2018-09-19T00:14:11.159Z,99.90
2018-09-19T00:16:39.430Z,99.90
2018-09-19T00:19:07.596Z,99.90
2018-09-19T00:21:35.639Z,99.90
2018-09-19T00:24:03.833Z,99.90
2018-09-19T00:26:31.905Z,99.90
2018-09-19T00:28:59.961Z,99.90
2018-09-19T00:31:28.014Z,99.90
2018-09-19T00:33:56.100Z,99.90
2018-09-19T00:36:24.539Z,99.90
2018-09-19T00:38:52.970Z,99.90
2018-09-19T00:41:21.040Z,99.90
2018-09-19T00:43:49.106Z,99.90
2018-09-19T00:46:17.183Z,99.90
2018-09-19T00:48:45.294Z,99.90
2018-09-19T00:51:13.357Z,99.90
2018-09-19T00:53:41.438Z,99.90
2018-09-19T00:56:09.515Z,99.90
2018-09-19T00:58:37.566Z,99.90
2018-09-19T01:01:05.630Z,99.90
2018-09-19T01:03:33.724Z,99.90
2018-09-19T01:06:01.800Z,99.90
2018-09-19T01:08:29.857Z,99.90
2018-09-19T01:10:57.945Z,99.90
2018-09-19T01:13:26.118Z,99.90
2018-09-19T01:15:54.161Z,99.90
2018-09-19T01:18:22.230Z,99.90
2018-09-19T01:20:50.306Z,99.90
2018-09-19T01:23:18.391Z,99.90
2018-09-19T01:25:46.440Z,99.90
2018-09-19T01:28:14.542Z,99.90
2018-09-19T01:30:42.631Z,99.90
2018-09-19T01:33:10.688Z,99.90
2018-09-19T01:35:38.750Z,99.90
2018-09-19T01:38:06.841Z,99.90
2018-09-19T01:40:34.915Z,99.90
2018-09-19T01:43:03.001Z,99.90
2018-09-19T01:45:31.068Z,99.90
2018-09-19T01:47:59.142Z,99.90
2018-09-19T01:50:27.194Z,99.90
2018-09-19T01:52:55.278Z,99.90
2018-09-19T01:55:23.322Z,99.90
2018-09-19T01:57:51.404Z,99.90
2018-09-19T02:00:19.467Z,99.90
2018-09-19T02:02:47.510Z,99.90
2018-09-19T02:05:15.611Z,99.90
2018-09-19T02:07:43.689Z,99.90
2018-09-19T02:10:11.767Z,99.90
2018-09-19T02:12:39.845Z,99.90
2018-09-19T02:15:08.010Z,99.90
2018-09-19T02:17:36.074Z,99.90
2018-09-19T02:20:04.149Z,99.90
2018-09-19T02:22:32.357Z,99.90
2018-09-19T02:25:00.499Z,99.90
2018-09-19T02:27:28.572Z,99.90
2018-09-19T02:29:56.642Z,99.90
2018-09-19T02:32:24.699Z,99.90
2018-09-19T02:34:52.805Z,99.90
2018-09-19T02:37:20.833Z,99.90
2018-09-19T02:39:48.938Z,99.90
2018-09-19T02:42:17.013Z,99.90
2018-09-19T02:44:45.181Z,99.90
2018-09-19T02:47:13.256Z,99.90
2018-09-19T02:49:41.314Z,99.90
2018-09-19T02:52:09.415Z,99.90
2018-09-19T02:54:37.570Z,99.90
2018-09-19T02:57:05.675Z,99.90
2018-09-19T02:59:33.692Z,99.90
2018-09-19T03:02:01.733Z,99.90
2018-09-19T03:04:29.772Z,99.90
2018-09-19T03:06:57.825Z,99.90
2018-09-19T03:09:25.879Z,99.90
2018-09-19T03:11:53.909Z,99.90
2018-09-19T03:14:21.976Z,99.90
2018-09-19T03:19:18.140Z,99.90
2018-09-19T03:21:46.154Z,99.90
2018-09-19T03:24:14.208Z,99.90
2018-09-19T03:26:42.314Z,99.90
2018-09-19T03:29:10.357Z,99.90
2018-09-19T03:31:38.445Z,99.90
2018-09-19T03:34:06.527Z,99.90
2018-09-19T03:36:34.570Z,99.90
2018-09-19T03:39:02.748Z,99.90
2018-09-19T03:41:30.845Z,99.90
2018-09-19T03:43:58.889Z,99.90
2018-09-19T03:46:26.958Z,99.90
2018-09-19T03:48:55.073Z,99.90
2018-09-19T03:51:23.241Z,99.90
2018-09-19T03:53:51.275Z,99.90
2018-09-19T03:56:19.382Z,99.90
2018-09-19T03:58:47.479Z,99.90
2018-09-19T04:01:15.561Z,99.90
2018-09-19T04:03:43.601Z,99.90
2018-09-19T04:06:11.670Z,99.90
2018-09-19T04:08:39.740Z,99.90
2018-09-19T04:11:07.833Z,99.90
2018-09-19T04:13:36.097Z,99.90
2018-09-19T04:16:04.164Z,99.90
2018-09-19T04:18:32.223Z,99.90
2018-09-19T04:21:00.267Z,99.90
2018-09-19T04:23:28.311Z,99.90
2018-09-19T04:25:56.365Z,99.90
2018-09-19T04:28:24.535Z,99.90
2018-09-19T04:30:52.602Z,99.90
2018-09-19T04:33:20.643Z,99.90
2018-09-19T04:35:48.709Z,99.90
2018-09-19T04:38:16.747Z,99.90
2018-09-19T04:40:44.803Z,99.90
2018-09-19T04:43:12.824Z,99.90
2018-09-19T04:45:40.883Z,99.90
2018-09-19T04:48:08.941Z,99.90
2018-09-19T04:50:36.981Z,99.90
2018-09-19T04:53:05.186Z,99.90
2018-09-19T04:55:33.319Z,99.90
2018-09-19T04:58:01.401Z,99.90
2018-09-19T05:00:29.460Z,99.90
2018-09-19T05:02:57.489Z,99.90
2018-09-19T05:05:25.542Z,99.90
2018-09-19T05:07:53.698Z,99.90
2018-09-19T05:10:21.753Z,99.90
2018-09-19T05:12:49.792Z,99.90
2018-09-19T05:15:17.900Z,99.90
2018-09-19T05:17:45.989Z,99.90
2018-09-19T05:20:14.025Z,99.90
2018-09-19T05:22:42.127Z,99.90
2018-09-19T05:25:10.301Z,99.90
2018-09-19T05:27:38.349Z,99.90
2018-09-19T05:30:06.411Z,99.90
2018-09-19T05:32:34.453Z,99.90
2018-09-19T05:35:02.766Z,99.90
2018-09-19T05:37:30.871Z,99.90
2018-09-19T05:39:58.906Z,99.90
2018-09-19T05:42:27.013Z,99.90
2018-09-19T05:44:55.092Z,99.90
2018-09-19T05:47:23.170Z,99.90
2018-09-19T05:49:51.270Z,99.90
2018-09-19T05:52:23.673Z,99.90
2018-09-19T05:54:52.052Z,99.90
2018-09-19T05:57:20.162Z,99.90
2018-09-19T05:59:48.656Z,99.90
2018-09-19T06:02:16.716Z,99.90
2018-09-19T06:04:44.851Z,99.90
2018-09-19T06:07:12.894Z,99.90
2018-09-19T06:09:40.941Z,99.90
2018-09-19T06:12:08.986Z,99.90
2018-09-19T06:14:37.082Z,99.90
2018-09-19T06:17:05.185Z,99.90
2018-09-19T06:19:33.208Z,99.90
2018-09-19T06:22:01.294Z,99.90
2018-09-19T06:24:29.331Z,99.90
2018-09-19T06:26:57.429Z,99.90
2018-09-19T06:29:25.533Z,99.90
2018-09-19T06:31:53.591Z,99.90
2018-09-19T06:34:21.653Z,99.90
2018-09-19T06:36:49.751Z,99.90
2018-09-19T06:39:17.784Z,99.90
2018-09-19T06:41:45.904Z,99.90
2018-09-19T06:44:13.933Z,99.90
2018-09-19T06:46:42.035Z,99.90
2018-09-19T06:49:10.051Z,99.90
2018-09-19T06:51:38.165Z,99.90
2018-09-19T06:54:06.233Z,99.90
2018-09-19T06:56:34.373Z,99.90
2018-09-19T06:59:02.416Z,99.90
2018-09-19T07:01:30.448Z,99.90
2018-09-19T07:03:58.513Z,99.90
2018-09-19T07:06:26.616Z,99.90
2018-09-19T07:08:54.668Z,99.90
2018-09-19T07:11:22.969Z,99.90
2018-09-19T07:13:51.266Z,99.90
2018-09-19T07:16:19.313Z,99.90
2018-09-19T07:18:47.388Z,99.90
2018-09-19T07:21:15.450Z,99.90
2018-09-19T07:23:43.562Z,99.90
2018-09-19T07:26:11.591Z,99.90
2018-09-19T07:28:39.645Z,99.90
2018-09-19T07:31:07.864Z,99.90
2018-09-19T07:33:35.808Z,99.90
2018-09-19T07:36:03.897Z,99.90
2018-09-19T07:38:31.954Z,99.90
2018-09-19T07:41:00.028Z,99.90
2018-09-19T07:43:28.070Z,99.90
2018-09-19T07:45:56.198Z,99.90
2018-09-19T07:48:24.246Z,99.90
2018-09-19T07:50:52.310Z,99.90
2018-09-19T07:53:20.386Z,99.90
2018-09-19T07:55:48.460Z,99.90
2018-09-19T07:58:16.538Z,99.90
2018-09-19T08:00:44.645Z,99.90
2018-09-19T08:03:12.631Z,99.90
2018-09-19T08:05:40.674Z,99.90
2018-09-19T08:08:08.755Z,99.90
2018-09-19T08:10:36.859Z,99.90
2018-09-19T08:13:04.973Z,99.90
2018-09-19T08:15:33.047Z,99.90
2018-09-19T08:18:01.139Z,99.90
2018-09-19T08:20:29.192Z,99.90
2018-09-19T08:22:57.259Z,99.90
2018-09-19T08:25:25.294Z,99.90
2018-09-19T08:27:53.407Z,99.90
2018-09-19T08:30:21.463Z,99.90
2018-09-19T08:32:49.515Z,99.90
2018-09-19T08:35:17.545Z,99.90
2018-09-19T08:37:45.609Z,99.90
2018-09-19T08:40:13.672Z,99.90
2018-09-19T08:42:41.709Z,99.90
2018-09-19T08:45:09.918Z,99.90
2018-09-19T08:47:37.974Z,99.90
2018-09-19T08:50:06.066Z,99.90
2018-09-19T08:52:34.117Z,99.90
2018-09-19T08:55:02.205Z,99.90
2018-09-19T08:57:30.246Z,99.90
2018-09-19T08:59:58.286Z,99.90
2018-09-19T09:02:26.325Z,99.90
2018-09-19T09:04:54.399Z,99.90
2018-09-19T09:07:22.669Z,99.90
2018-09-19T09:09:50.720Z,99.90
2018-09-19T09:12:18.796Z,99.90
2018-09-19T09:14:46.917Z,99.90
2018-09-19T09:17:14.993Z,99.90
2018-09-19T09:19:43.079Z,99.90
2018-09-19T09:22:11.065Z,99.90
2018-09-19T09:24:39.190Z,99.90
2018-09-19T09:27:07.338Z,99.90
2018-09-19T09:29:35.281Z,99.90
2018-09-19T09:32:03.416Z,99.90
2018-09-19T09:34:31.498Z,99.90
2018-09-19T09:36:59.558Z,99.90
2018-09-19T09:39:27.601Z,99.90
2018-09-19T09:41:55.685Z,99.90
2018-09-19T09:44:23.725Z,99.90
2018-09-19T09:46:51.829Z,99.90
2018-09-19T09:49:19.877Z,99.90
2018-09-19T09:51:48.168Z,99.90
2018-09-19T09:54:16.207Z,99.90
2018-09-19T09:56:44.303Z,99.90
2018-09-19T09:59:12.407Z,99.90
2018-09-19T10:01:40.446Z,99.90
2018-09-19T10:04:08.514Z,99.90
2018-09-19T10:06:36.559Z,99.90
2018-09-19T10:09:06.045Z,99.90
2018-09-19T10:11:34.166Z,99.90
2018-09-19T10:14:02.272Z,99.90
2018-09-19T10:16:30.279Z,99.90
2018-09-19T10:18:58.338Z,99.90
2018-09-19T10:21:26.464Z,99.90
2018-09-19T10:23:54.529Z,99.90
2018-09-19T10:26:22.617Z,99.90
2018-09-19T10:28:50.749Z,99.90
2018-09-19T10:31:18.857Z,99.90
2018-09-19T10:33:46.972Z,99.90
2018-09-19T10:36:15.093Z,99.90
2018-09-19T10:38:43.494Z,99.90
2018-09-19T10:41:11.533Z,99.90
2018-09-19T10:43:39.554Z,99.90
2018-09-19T10:46:07.622Z,99.90
2018-09-19T10:48:35.661Z,99.90
2018-09-19T10:51:03.839Z,99.90
2018-09-19T10:53:32.005Z,99.90
2018-09-19T10:56:00.268Z,99.90
2018-09-19T10:58:28.790Z,99.90
2018-09-19T11:00:56.849Z,99.90
2018-09-19T11:03:25.020Z,99.90
2018-09-19T11:05:53.197Z,99.90
2018-09-19T11:08:21.505Z,99.90
2018-09-19T11:10:49.720Z,99.90
2018-09-19T11:13:17.851Z,99.90
2018-09-19T11:15:45.997Z,99.90
2018-09-19T11:18:14.100Z,99.90
2018-09-19T11:20:42.137Z,99.90
2018-09-19T11:23:10.213Z,99.90
2018-09-19T11:25:38.285Z,99.90
2018-09-19T11:28:06.356Z,99.90
2018-09-19T11:30:34.409Z,99.90
2018-09-19T11:33:02.503Z,99.90
2018-09-19T11:35:30.557Z,99.90
2018-09-19T11:37:58.669Z,99.90
2018-09-19T11:40:26.820Z,99.90
2018-09-19T11:42:54.880Z,99.60
2018-09-19T11:45:22.929Z,99.70
2018-09-19T11:47:51.175Z,99.20
2018-09-19T11:50:19.225Z,98.60
2018-09-19T11:52:47.504Z,98.40
2018-09-19T11:55:15.581Z,97.80
2018-09-19T11:57:43.647Z,97.70
2018-09-19T12:00:11.689Z,96.90
2018-09-19T12:02:39.786Z,96.90
2018-09-19T12:05:07.854Z,96.00
2018-09-19T12:07:35.898Z,95.80
2018-09-19T12:10:04.038Z,94.80
2018-09-19T12:12:32.088Z,94.20
2018-09-19T12:15:00.669Z,93.60
2018-09-19T12:17:28.829Z,92.80
2018-09-19T12:19:57.031Z,92.50
2018-09-19T12:22:25.186Z,92.10
2018-09-19T12:24:53.237Z,91.40
2018-09-19T12:27:21.464Z,91.00
2018-09-19T12:29:49.633Z,91.30
2018-09-19T12:32:17.773Z,91.20
2018-09-19T12:34:45.802Z,88.40
2018-09-19T12:37:13.928Z,88.10
2018-09-19T12:39:42.049Z,86.70
2018-09-19T12:42:10.085Z,85.30
2018-09-19T12:44:38.141Z,84.90
2018-09-19T12:47:06.240Z,84.30
2018-09-19T12:49:34.289Z,83.90
2018-09-19T12:52:02.441Z,83.60
2018-09-19T12:54:30.547Z,83.50
2018-09-19T12:56:58.605Z,82.90
2018-09-19T12:59:26.677Z,81.90
2018-09-19T13:01:54.941Z,80.10
2018-09-19T13:04:23.062Z,79.10
2018-09-19T13:06:51.453Z,78.40
2018-09-19T13:09:19.730Z,76.80
2018-09-19T13:11:48.101Z,75.80
2018-09-19T13:14:16.197Z,75.90
2018-09-19T13:16:44.243Z,75.80
2018-09-19T13:19:12.289Z,75.40
2018-09-19T13:21:40.458Z,73.90
2018-09-19T13:24:08.541Z,72.10
2018-09-19T13:26:36.700Z,71.90
2018-09-19T13:29:04.760Z,71.60
2018-09-19T13:31:32.844Z,70.60
2018-09-19T13:34:00.901Z,70.00
2018-09-19T13:36:28.998Z,68.00
2018-09-19T13:38:57.085Z,67.30
2018-09-19T13:41:25.169Z,66.30
2018-09-19T13:43:53.183Z,65.60
2018-09-19T13:46:21.233Z,64.10
2018-09-19T13:48:52.456Z,60.10
2018-09-19T13:51:21.627Z,57.10
2018-09-19T13:53:49.641Z,52.80
2018-09-19T13:56:17.677Z,50.60
2018-09-19T13:58:45.894Z,47.60
2018-09-19T14:01:13.909Z,44.40
2018-09-19T14:03:41.950Z,42.00
2018-09-19T14:06:10.056Z,40.40
2018-09-19T14:08:38.138Z,39.90
2018-09-19T14:11:06.265Z,39.50
2018-09-19T14:13:34.305Z,38.90
2018-09-19T14:16:02.342Z,37.80
2018-09-19T14:18:30.734Z,36.60
2018-09-19T14:20:58.808Z,36.70
2018-09-19T14:23:26.869Z,36.90
2018-09-19T14:25:54.931Z,36.10
2018-09-19T14:28:22.992Z,35.60
2018-09-19T14:30:51.193Z,34.60
2018-09-19T14:33:19.523Z,34.10
2018-09-19T14:35:47.591Z,34.40
2018-09-19T14:38:15.665Z,34.90
2018-09-19T14:40:43.728Z,34.80
2018-09-19T14:43:11.802Z,34.10
2018-09-19T14:45:39.828Z,33.60
2018-09-19T14:48:07.893Z,34.20
2018-09-19T14:50:35.968Z,33.60
2018-09-19T14:53:04.043Z,33.60
2018-09-19T14:55:32.122Z,33.20
2018-09-19T14:58:00.174Z,33.60
2018-09-19T15:00:28.255Z,33.70
2018-09-19T15:02:56.319Z,33.70
2018-09-19T15:05:24.349Z,33.80
2018-09-19T15:07:52.480Z,34.30
2018-09-19T15:10:20.501Z,34.10
2018-09-19T15:12:48.613Z,33.90
2018-09-19T15:15:17.006Z,33.50
2018-09-19T15:17:45.162Z,34.40
2018-09-19T15:20:13.197Z,34.50
2018-09-19T15:22:41.273Z,34.60
2018-09-19T15:25:09.325Z,35.00
2018-09-19T15:27:37.366Z,35.40
2018-09-19T15:30:05.437Z,36.30
2018-09-19T15:32:33.469Z,35.50
2018-09-19T15:35:01.562Z,35.50
2018-09-19T15:37:29.613Z,35.30
2018-09-19T15:39:57.702Z,35.70
2018-09-19T15:42:25.779Z,36.30
2018-09-19T15:44:54.167Z,35.80
2018-09-19T15:47:22.241Z,35.50
2018-09-19T15:49:50.405Z,35.40
2018-09-19T15:52:18.653Z,35.60
2018-09-19T15:54:46.757Z,35.10
2018-09-19T15:57:15.035Z,35.10
2018-09-19T15:59:43.140Z,36.10
2018-09-19T16:02:11.206Z,35.60
2018-09-19T16:04:39.258Z,36.10
2018-09-19T16:07:07.346Z,36.00
2018-09-19T16:09:35.465Z,35.20
2018-09-19T16:12:03.525Z,35.90
2018-09-19T16:14:31.592Z,36.30
2018-09-19T16:16:59.615Z,37.00
2018-09-19T16:19:27.661Z,37.40
2018-09-19T16:21:55.792Z,37.90
2018-09-19T16:24:23.858Z,37.80
2018-09-19T16:26:51.894Z,38.70
2018-09-19T16:29:19.946Z,38.50
2018-09-19T16:31:48.053Z,39.90
2018-09-19T16:34:16.109Z,40.30
2018-09-19T16:36:44.239Z,40.40
2018-09-19T16:39:13.176Z,41.00
2018-09-19T16:41:41.218Z,41.60
2018-09-19T16:44:09.306Z,42.10
2018-09-19T16:46:37.761Z,42.70
2018-09-19T16:49:06.102Z,42.60
2018-09-19T16:51:34.345Z,43.20
2018-09-19T16:54:02.465Z,43.50
2018-09-19T16:56:30.699Z,44.30
2018-09-19T16:58:58.850Z,45.30
2018-09-19T17:01:27.354Z,46.20
2018-09-19T17:03:55.497Z,45.90
2018-09-19T17:06:24.448Z,46.30
2018-09-19T17:08:52.533Z,47.40
2018-09-19T17:11:20.575Z,47.30
2018-09-19T17:13:48.637Z,47.80
2018-09-19T17:16:17.139Z,48.30
2018-09-19T17:18:45.215Z,49.40
2018-09-19T17:21:14.378Z,49.40
2018-09-19T17:23:42.525Z,50.20
2018-09-19T17:26:10.740Z,50.40
2018-09-19T17:28:38.986Z,51.40
2018-09-19T17:31:07.255Z,51.80
2018-09-19T17:33:35.748Z,52.20
2018-09-19T17:36:03.917Z,53.00
2018-09-19T17:38:31.957Z,53.60
2018-09-19T17:41:00.047Z,54.30
2018-09-19T17:43:28.648Z,54.70
2018-09-19T17:45:57.359Z,55.20
2018-09-19T17:48:25.946Z,55.80
2018-09-19T17:50:54.038Z,56.60
2018-09-19T17:53:22.165Z,57.20
2018-09-19T17:55:51.088Z,58.40
2018-09-19T17:58:20.100Z,58.50
2018-09-19T18:00:48.244Z,58.90
2018-09-19T18:03:16.264Z,59.40
2018-09-19T18:05:44.318Z,59.80
2018-09-19T18:08:12.415Z,60.70
2018-09-19T18:10:40.509Z,61.80
2018-09-19T18:13:08.537Z,62.10
2018-09-19T18:15:36.611Z,62.70
2018-09-19T18:18:04.657Z,63.50
2018-09-19T18:20:33.163Z,64.20
2018-09-19T18:23:01.537Z,64.90
2018-09-19T18:25:29.634Z,66.10
2018-09-19T18:27:57.653Z,66.50
2018-09-19T18:30:26.050Z,67.10
2018-09-19T18:32:54.157Z,67.70
2018-09-19T18:35:22.253Z,68.30
2018-09-19T18:37:50.326Z,68.90
2018-09-19T18:40:18.432Z,69.90
2018-09-19T18:42:46.441Z,70.30
2018-09-19T18:45:14.575Z,71.10
2018-09-19T18:47:42.666Z,71.70
2018-09-19T18:50:10.760Z,72.70
2018-09-19T18:52:38.801Z,73.30
2018-09-19T18:55:06.937Z,74.10
2018-09-19T18:57:35.182Z,75.10
2018-09-19T19:00:03.406Z,76.00
2018-09-19T19:02:31.469Z,76.70
2018-09-19T19:04:59.637Z,77.70
2018-09-19T19:07:27.673Z,78.40
2018-09-19T19:09:55.733Z,79.30
2018-09-19T19:12:23.866Z,80.20
2018-09-19T19:14:51.913Z,81.90
2018-09-19T19:17:20.035Z,82.90
2018-09-19T19:19:48.073Z,83.00
2018-09-19T19:22:16.155Z,83.90
2018-09-19T19:24:44.224Z,84.70
2018-09-19T19:27:12.367Z,85.80
2018-09-19T19:29:40.417Z,86.60
2018-09-19T19:32:08.724Z,87.50
2018-09-19T19:34:36.745Z,88.40
2018-09-19T19:37:05.050Z,89.40
2018-09-19T19:39:33.086Z,90.00
2018-09-19T19:42:01.340Z,90.50
2018-09-19T19:44:29.437Z,91.00
2018-09-19T19:46:57.599Z,91.40
2018-09-19T19:49:25.618Z,91.60
2018-09-19T19:51:53.740Z,91.80
2018-09-19T19:54:21.841Z,92.10
2018-09-19T19:56:50.017Z,92.40
2018-09-19T19:59:18.172Z,92.70
2018-09-19T20:01:46.241Z,93.00
2018-09-19T20:04:14.288Z,93.40
2018-09-19T20:06:42.338Z,93.70
2018-09-19T20:09:10.376Z,94.30
2018-09-19T20:11:39.202Z,94.80
2018-09-19T20:14:07.413Z,94.90
2018-09-19T20:16:35.590Z,95.20
2018-09-19T20:19:03.850Z,95.50
2018-09-19T20:21:31.975Z,95.70
2018-09-19T20:24:00.098Z,95.90
2018-09-19T20:26:28.133Z,96.30
2018-09-19T20:28:56.172Z,96.50
2018-09-19T20:31:24.271Z,97.00
2018-09-19T20:33:52.385Z,97.20
2018-09-19T20:36:20.447Z,97.60
2018-09-19T20:38:48.472Z,98.50
2018-09-19T20:41:16.654Z,98.50
2018-09-19T20:43:44.666Z,98.90
2018-09-19T20:46:12.781Z,99.10
2018-09-19T20:48:40.988Z,99.70
2018-09-19T20:51:09.039Z,99.70
2018-09-19T20:53:37.318Z,99.80
2018-09-19T20:56:05.362Z,99.90
2018-09-19T20:58:33.433Z,99.90
2018-09-19T21:01:01.925Z,99.90
2018-09-19T21:03:30.235Z,99.90
2018-09-19T21:05:58.258Z,99.90
2018-09-19T21:08:26.325Z,99.90
2018-09-19T21:10:54.402Z,99.90
2018-09-19T21:13:22.482Z,99.90
2018-09-19T21:15:50.620Z,99.90
2018-09-19T21:18:18.832Z,99.90
2018-09-19T21:20:46.997Z,99.90
2018-09-19T21:23:15.081Z,99.90
2018-09-19T21:25:43.178Z,99.90
2018-09-19T21:28:11.235Z,99.90
2018-09-19T21:30:39.273Z,99.90
2018-09-19T21:33:07.412Z,99.90
2018-09-19T21:35:35.502Z,99.90
2018-09-19T21:38:03.619Z,99.90
2018-09-19T21:40:31.673Z,99.90
2018-09-19T21:42:59.761Z,99.90
2018-09-19T21:45:27.831Z,99.90
2018-09-19T21:47:55.874Z,99.90
2018-09-19T21:50:23.995Z,99.90
2018-09-19T21:52:52.010Z,99.90
2018-09-19T21:55:20.040Z,99.90
2018-09-19T21:57:48.089Z,99.90
2018-09-19T22:00:16.161Z,99.90
2018-09-19T22:02:44.239Z,99.90
2018-09-19T22:05:12.335Z,99.90
2018-09-19T22:07:40.384Z,99.90
2018-09-19T22:10:08.432Z,99.90
2018-09-19T22:12:36.525Z,99.90
2018-09-19T22:15:04.721Z,99.90
2018-09-19T22:17:32.875Z,99.90
2018-09-19T22:20:00.942Z,99.90
2018-09-19T22:22:29.045Z,99.90
2018-09-19T22:24:57.089Z,99.90
2018-09-19T22:27:25.165Z,99.90
2018-09-19T22:29:53.165Z,99.90
2018-09-19T22:32:21.181Z,99.90
2018-09-19T22:34:49.206Z,99.90
2018-09-19T22:37:17.353Z,99.90
2018-09-19T22:39:45.404Z,99.90
2018-09-19T22:42:13.493Z,99.90
2018-09-19T22:44:41.614Z,99.90
2018-09-19T22:47:09.667Z,99.90
2018-09-19T22:49:37.818Z,99.90
2018-09-19T22:52:05.934Z,99.90
2018-09-19T22:54:34.084Z,99.90
2018-09-19T22:57:02.117Z,99.90
2018-09-19T22:59:30.210Z,99.90
2018-09-19T23:01:58.301Z,99.90
2018-09-19T23:04:26.459Z,99.90
2018-09-19T23:06:54.526Z,99.90
2018-09-19T23:09:22.608Z,99.90
2018-09-19T23:11:50.661Z,99.90
2018-09-19T23:14:18.763Z,99.90
2018-09-19T23:16:46.849Z,99.90
2018-09-19T23:19:14.877Z,99.90
2018-09-19T23:21:42.911Z,99.90
2018-09-19T23:24:10.973Z,99.90
2018-09-19T23:26:39.038Z,99.90
2018-09-19T23:29:07.209Z,99.90
2018-09-19T23:31:35.241Z,99.90
2018-09-19T23:34:03.321Z,99.90
2018-09-19T23:36:31.396Z,99.90
2018-09-19T23:38:59.469Z,99.90
2018-09-19T23:41:27.525Z,99.90
2018-09-19T23:43:55.617Z,99.90
2018-09-19T23:46:23.687Z,99.90
2018-09-19T23:48:51.741Z,99.90
2018-09-19T23:51:19.832Z,99.90
2018-09-19T23:53:47.896Z,99.90
2018-09-19T23:56:15.985Z,99.90
2018-09-19T23:58:44.058Z,99.90
